sensor_id;sensor_type;location;lat;lon;timestamp;temperature;humidity
17529;DHT22;8882;53.192;8.184;2023-02-15T05:30:37;0.90;99.90
17529;DHT22;8882;53.192;8.184;2023-02-15T05:33:05;1.00;99.90
17529;DHT22;8882;53.192;8.184;2023-02-15T05:35:31;0.90;99.90
17529;DHT22;8882;53.192;8.184;2023-02-15T05:37:57;0.90;99.90
17529;DHT22;8882;53.192;8.184;2023-02-15T05:40:23;0.90;99.90
17529;DHT22;8882;53.192;8.184;2023-02-15T05:42:48;0.90;99.90
17529;DHT22;8882;53.192;8.184;2023-02-15T05:45:14;0.90;99.90
17529;DHT22;8882;53.192;8.184;2023-02-15T05:47:40;0.90;99.90
17529;DHT22;8882;53.192;8.184;2023-02-15T05:50:06;0.90;99.90
17529;DHT22;8882;53.192;8.184;2023-02-15T05:52:32;0.90;99.90
17529;DHT22;8882;53.192;8.184;2023-02-15T05:54:57;0.90;99.90
17529;DHT22;8882;53.192;8.184;2023-02-15T05:57:25;0.90;99.90
17529;DHT22;8882;53.192;8.184;2023-02-15T05:59:51;0.80;99.90
17529;DHT22;8882;53.192;8.184;2023-02-15T06:02:17;0.80;99.90
17529;DHT22;8882;53.192;8.184;2023-02-15T06:04:42;0.80;99.90
17529;DHT22;8882;53.192;8.184;2023-02-15T06:07:08;0.70;99.90
17529;DHT22;8882;53.192;8.184;2023-02-15T06:09:34;0.70;99.90
17529;DHT22;8882;53.192;8.184;2023-02-15T06:11:59;0.80;99.90
17529;DHT22;8882;53.192;8.184;2023-02-15T06:14:25;0.70;99.90
17529;DHT22;8882;53.192;8.184;2023-02-15T06:16:51;0.70;99.90
17529;DHT22;8882;53.192;8.184;2023-02-15T06:19:16;0.70;99.90
17529;DHT22;8882;53.192;8.184;2023-02-15T06:21:42;0.70;99.90
17529;DHT22;8882;53.192;8.184;2023-02-15T06:24:09;0.70;99.90
17529;DHT22;8882;53.192;8.184;2023-02-15T06:26:34;0.70;99.90
17529;DHT22;8882;53.192;8.184;2023-02-15T06:29:00;0.70;99.90
17529;DHT22;8882;53.192;8.184;2023-02-15T06:31:26;0.80;99.90
17529;DHT22;8882;53.192;8.184;2023-02-15T06:33:51;0.80;99.90
17529;DHT22;8882;53.192;8.184;2023-02-15T06:36:17;0.80;99.90
17529;DHT22;8882;53.192;8.184;2023-02-15T06:38:42;0.80;99.90
17529;DHT22;8882;53.192;8.184;2023-02-15T06:41:08;1.00;99.90
17529;DHT22;8882;53.192;8.184;2023-02-15T06:43:33;1.00;99.90
17529;DHT22;8882;53.192;8.184;2023-02-15T06:46:00;1.00;99.90
17529;DHT22;8882;53.192;8.184;2023-02-15T06:48:25;1.00;99.90
17529;DHT22;8882;53.192;8.184;2023-02-15T06:50:52;0.90;99.90
17529;DHT22;8882;53.192;8.184;2023-02-15T06:53:17;0.90;99.90
17529;DHT22;8882;53.192;8.184;2023-02-15T06:55:43;0.90;99.90
17529;DHT22;8882;53.192;8.184;2023-02-15T06:58:09;0.80;99.90
17529;DHT22;8882;53.192;8.184;2023-02-15T07:00:34;0.80;99.90
17529;DHT22;8882;53.192;8.184;2023-02-15T07:03:00;0.80;99.90
17529;DHT22;8882;53.192;8.184;2023-02-15T07:05:28;0.80;99.90
17529;DHT22;8882;53.192;8.184;2023-02-15T07:07:57;0.80;99.90
17529;DHT22;8882;53.192;8.184;2023-02-15T07:10:23;0.80;99.90
17529;DHT22;8882;53.192;8.184;2023-02-15T07:12:48;0.70;99.90
17529;DHT22;8882;53.192;8.184;2023-02-15T07:15:16;0.70;99.90
17529;DHT22;8882;53.192;8.184;2023-02-15T07:17:43;0.70;99.90
17529;DHT22;8882;53.192;8.184;2023-02-15T07:20:14;0.70;99.90
17529;DHT22;8882;53.192;8.184;2023-02-15T07:22:40;0.70;99.90
17529;DHT22;8882;53.192;8.184;2023-02-15T07:25:07;0.70;99.90
17529;DHT22;8882;53.192;8.184;2023-02-15T07:27:33;0.70;99.90
17529;DHT22;8882;53.192;8.184;2023-02-15T07:29:59;0.70;99.90
17529;DHT22;8882;53.192;8.184;2023-02-15T07:32:28;0.80;99.90
17529;DHT22;8882;53.192;8.184;2023-02-15T07:34:54;0.80;99.90
17529;DHT22;8882;53.192;8.184;2023-02-15T07:37:20;0.80;99.90
17529;DHT22;8882;53.192;8.184;2023-02-15T07:39:45;0.80;99.90
17529;DHT22;8882;53.192;8.184;2023-02-15T07:42:11;0.90;99.90
17529;DHT22;8882;53.192;8.184;2023-02-15T07:44:36;0.90;99.90
17529;DHT22;8882;53.192;8.184;2023-02-15T07:47:02;0.90;99.90
17529;DHT22;8882;53.192;8.184;2023-02-15T07:49:28;1.00;99.90
17529;DHT22;8882;53.192;8.184;2023-02-15T07:51:53;1.00;99.90
17529;DHT22;8882;53.192;8.184;2023-02-15T07:54:19;1.00;99.90
17529;DHT22;8882;53.192;8.184;2023-02-15T07:56:44;1.10;99.90
17529;DHT22;8882;53.192;8.184;2023-02-15T07:59:10;1.10;99.90
17529;DHT22;8882;53.192;8.184;2023-02-15T08:01:37;1.20;99.90
17529;DHT22;8882;53.192;8.184;2023-02-15T08:04:04;1.30;99.90
17529;DHT22;8882;53.192;8.184;2023-02-15T08:06:32;1.30;99.90
17529;DHT22;8882;53.192;8.184;2023-02-15T08:08:58;1.40;99.90
17529;DHT22;8882;53.192;8.184;2023-02-15T08:11:30;1.40;99.90
17529;DHT22;8882;53.192;8.184;2023-02-15T08:16:41;1.50;99.90
17529;DHT22;8882;53.192;8.184;2023-02-15T08:21:41;1.60;99.90
17529;DHT22;8882;53.192;8.184;2023-02-15T08:24:08;1.70;99.90
17529;DHT22;8882;53.192;8.184;2023-02-15T08:26:34;1.80;99.90
17529;DHT22;8882;53.192;8.184;2023-02-15T08:29:01;1.80;99.90
17529;DHT22;8882;53.192;8.184;2023-02-15T08:31:27;1.90;99.90
17529;DHT22;8882;53.192;8.184;2023-02-15T08:33:54;1.90;99.90
17529;DHT22;8882;53.192;8.184;2023-02-15T08:36:22;2.00;99.90
17529;DHT22;8882;53.192;8.184;2023-02-15T08:38:48;2.10;99.90
17529;DHT22;8882;53.192;8.184;2023-02-15T08:41:20;2.10;99.90
17529;DHT22;8882;53.192;8.184;2023-02-15T08:43:48;2.20;99.90
17529;DHT22;8882;53.192;8.184;2023-02-15T08:46:16;2.30;99.90
17529;DHT22;8882;53.192;8.184;2023-02-15T08:48:42;2.40;99.90
17529;DHT22;8882;53.192;8.184;2023-02-15T08:51:19;2.40;99.90
17529;DHT22;8882;53.192;8.184;2023-02-15T08:53:48;2.50;99.90
17529;DHT22;8882;53.192;8.184;2023-02-15T08:56:15;2.60;99.90
17529;DHT22;8882;53.192;8.184;2023-02-15T08:58:41;2.70;99.90
17529;DHT22;8882;53.192;8.184;2023-02-15T09:01:14;2.70;99.90
17529;DHT22;8882;53.192;8.184;2023-02-15T09:03:43;2.90;99.90
17529;DHT22;8882;53.192;8.184;2023-02-15T09:06:10;3.10;99.90
17529;DHT22;8882;53.192;8.184;2023-02-15T09:08:36;3.20;99.90
17529;DHT22;8882;53.192;8.184;2023-02-15T09:11:20;3.40;99.90
17529;DHT22;8882;53.192;8.184;2023-02-15T09:16:21;3.80;99.90
17529;DHT22;8882;53.192;8.184;2023-02-15T09:18:47;4.00;99.90
17529;DHT22;8882;53.192;8.184;2023-02-15T09:21:15;4.10;99.90
17529;DHT22;8882;53.192;8.184;2023-02-15T09:23:42;4.10;99.90
17529;DHT22;8882;53.192;8.184;2023-02-15T09:26:13;4.20;99.90
17529;DHT22;8882;53.192;8.184;2023-02-15T09:28:39;4.40;99.90
17529;DHT22;8882;53.192;8.184;2023-02-15T09:31:10;4.50;99.90
17529;DHT22;8882;53.192;8.184;2023-02-15T09:33:37;4.60;99.90
17529;DHT22;8882;53.192;8.184;2023-02-15T09:36:04;4.90;99.90
17529;DHT22;8882;53.192;8.184;2023-02-15T09:38:30;5.10;99.90
17529;DHT22;8882;53.192;8.184;2023-02-15T09:41:15;5.40;99.90
17529;DHT22;8882;53.192;8.184;2023-02-15T09:46:45;5.50;99.90
17529;DHT22;8882;53.192;8.184;2023-02-15T09:49:36;5.50;99.90
17529;DHT22;8882;53.192;8.184;2023-02-15T09:55:17;5.90;99.90
17529;DHT22;8882;53.192;8.184;2023-02-15T09:58:02;5.80;99.90
17529;DHT22;8882;53.192;8.184;2023-02-15T10:00:57;5.90;99.90
17529;DHT22;8882;53.192;8.184;2023-02-15T10:03:39;6.10;99.90
17529;DHT22;8882;53.192;8.184;2023-02-15T10:20:55;6.80;99.90
17529;DHT22;8882;53.192;8.184;2023-02-15T10:23:51;7.10;99.90
17529;DHT22;8882;53.192;8.184;2023-02-15T10:26:28;7.40;99.90
17529;DHT22;8882;53.192;8.184;2023-02-15T10:29:08;7.60;99.90
17529;DHT22;8882;53.192;8.184;2023-02-15T10:42:20;7.90;99.90
17529;DHT22;8882;53.192;8.184;2023-02-15T10:45:24;8.00;99.90
17529;DHT22;8882;53.192;8.184;2023-02-15T10:48:01;8.20;99.90
17529;DHT22;8882;53.192;8.184;2023-02-15T10:50:52;8.40;99.90
17529;DHT22;8882;53.192;8.184;2023-02-15T10:53:41;8.40;99.90
17529;DHT22;8882;53.192;8.184;2023-02-15T10:56:24;8.50;99.90
17529;DHT22;8882;53.192;8.184;2023-02-15T10:59:08;8.80;99.90
17529;DHT22;8882;53.192;8.184;2023-02-15T11:07:30;9.00;99.90
17529;DHT22;8882;53.192;8.184;2023-02-15T11:12:50;9.00;99.90
17529;DHT22;8882;53.192;8.184;2023-02-15T11:15:33;9.00;99.90
17529;DHT22;8882;53.192;8.184;2023-02-15T11:18:12;9.10;99.90
17529;DHT22;8882;53.192;8.184;2023-02-15T11:20:48;9.30;99.90
17529;DHT22;8882;53.192;8.184;2023-02-15T11:23:16;9.40;99.90
17529;DHT22;8882;53.192;8.184;2023-02-15T11:25:46;9.50;99.90
17529;DHT22;8882;53.192;8.184;2023-02-15T11:28:22;9.50;99.90
17529;DHT22;8882;53.192;8.184;2023-02-15T11:30:54;9.50;99.90
17529;DHT22;8882;53.192;8.184;2023-02-15T11:33:26;9.60;99.90
17529;DHT22;8882;53.192;8.184;2023-02-15T11:39:12;9.80;99.90
17529;DHT22;8882;53.192;8.184;2023-02-15T11:41:43;9.70;99.90
17529;DHT22;8882;53.192;8.184;2023-02-15T11:44:23;9.70;99.90
17529;DHT22;8882;53.192;8.184;2023-02-15T11:46:51;9.70;99.90
17529;DHT22;8882;53.192;8.184;2023-02-15T11:49:53;9.90;99.90
17529;DHT22;8882;53.192;8.184;2023-02-15T11:52:14;9.80;99.90
17529;DHT22;8882;53.192;8.184;2023-02-15T11:54:42;9.90;99.90
17529;DHT22;8882;53.192;8.184;2023-02-15T11:57:14;10.10;99.90
17529;DHT22;8882;53.192;8.184;2023-02-15T11:59:43;10.20;99.90
17529;DHT22;8882;53.192;8.184;2023-02-15T12:02:17;10.20;99.90
17529;DHT22;8882;53.192;8.184;2023-02-15T12:05:29;10.10;99.90
17529;DHT22;8882;53.192;8.184;2023-02-15T12:07:47;9.90;99.90
17529;DHT22;8882;53.192;8.184;2023-02-15T12:10:24;10.00;99.90
17529;DHT22;8882;53.192;8.184;2023-02-15T12:13:14;10.10;99.90
17529;DHT22;8882;53.192;8.184;2023-02-15T12:15:43;10.20;99.90
17529;DHT22;8882;53.192;8.184;2023-02-15T12:18:39;10.20;99.90
17529;DHT22;8882;53.192;8.184;2023-02-15T12:21:08;10.10;99.90
17529;DHT22;8882;53.192;8.184;2023-02-15T12:23:41;10.10;99.90
17529;DHT22;8882;53.192;8.184;2023-02-15T12:26:09;10.00;99.90
17529;DHT22;8882;53.192;8.184;2023-02-15T12:28:38;10.00;99.90
17529;DHT22;8882;53.192;8.184;2023-02-15T12:31:19;10.20;99.90
17529;DHT22;8882;53.192;8.184;2023-02-15T12:33:45;10.30;99.90
17529;DHT22;8882;53.192;8.184;2023-02-15T12:36:25;10.30;99.90
17529;DHT22;8882;53.192;8.184;2023-02-15T12:41:45;10.20;99.90
17529;DHT22;8882;53.192;8.184;2023-02-15T12:44:19;10.30;99.90
17529;DHT22;8882;53.192;8.184;2023-02-15T12:49:35;10.80;99.90
17529;DHT22;8882;53.192;8.184;2023-02-15T12:52:11;11.10;99.90
17529;DHT22;8882;53.192;8.184;2023-02-15T12:54:47;11.00;99.90
17529;DHT22;8882;53.192;8.184;2023-02-15T12:57:29;11.00;99.90
17529;DHT22;8882;53.192;8.184;2023-02-15T13:00:11;11.20;99.90
17529;DHT22;8882;53.192;8.184;2023-02-15T13:02:54;11.30;99.90
17529;DHT22;8882;53.192;8.184;2023-02-15T13:05:33;11.20;99.90
17529;DHT22;8882;53.192;8.184;2023-02-15T13:08:12;11.30;99.90
17529;DHT22;8882;53.192;8.184;2023-02-15T13:11:00;11.10;99.90
17529;DHT22;8882;53.192;8.184;2023-02-15T13:13:29;11.10;99.90
17529;DHT22;8882;53.192;8.184;2023-02-15T13:16:00;11.10;99.90
17529;DHT22;8882;53.192;8.184;2023-02-15T13:18:39;11.10;99.90
17529;DHT22;8882;53.192;8.184;2023-02-15T13:21:20;11.20;99.90
17529;DHT22;8882;53.192;8.184;2023-02-15T13:24:06;11.20;99.90
17529;DHT22;8882;53.192;8.184;2023-02-15T13:26:34;11.30;99.90
17529;DHT22;8882;53.192;8.184;2023-02-15T13:29:10;11.20;99.90
17529;DHT22;8882;53.192;8.184;2023-02-15T13:31:38;11.20;99.90
17529;DHT22;8882;53.192;8.184;2023-02-15T13:34:11;11.20;99.90
17529;DHT22;8882;53.192;8.184;2023-02-15T13:36:55;11.30;99.90
17529;DHT22;8882;53.192;8.184;2023-02-15T13:56:40;11.40;99.90
17529;DHT22;8882;53.192;8.184;2023-02-15T14:12:56;11.20;99.90
17529;DHT22;8882;53.192;8.184;2023-02-15T14:15:28;11.20;99.90
17529;DHT22;8882;53.192;8.184;2023-02-15T14:21:10;11.10;99.90
17529;DHT22;8882;53.192;8.184;2023-02-15T14:26:15;11.10;99.90
17529;DHT22;8882;53.192;8.184;2023-02-15T14:28:51;11.00;99.90
17529;DHT22;8882;53.192;8.184;2023-02-15T14:31:28;11.00;99.90
17529;DHT22;8882;53.192;8.184;2023-02-15T14:33:56;10.90;99.90
17529;DHT22;8882;53.192;8.184;2023-02-15T14:36:23;10.90;99.90
17529;DHT22;8882;53.192;8.184;2023-02-15T14:42:25;10.70;99.90
17529;DHT22;8882;53.192;8.184;2023-02-15T14:45:05;10.80;99.90
17529;DHT22;8882;53.192;8.184;2023-02-15T14:47:44;10.70;99.90
17529;DHT22;8882;53.192;8.184;2023-02-15T14:53:25;10.60;99.90
17529;DHT22;8882;53.192;8.184;2023-02-15T14:56:20;10.60;99.90
17529;DHT22;8882;53.192;8.184;2023-02-15T15:01:29;10.50;99.90
17529;DHT22;8882;53.192;8.184;2023-02-15T15:04:00;10.50;99.90
17529;DHT22;8882;53.192;8.184;2023-02-15T15:06:30;10.40;99.90
17529;DHT22;8882;53.192;8.184;2023-02-15T15:09:05;10.40;99.90
17529;DHT22;8882;53.192;8.184;2023-02-15T15:11:54;10.40;99.90
17529;DHT22;8882;53.192;8.184;2023-02-15T15:17:04;10.30;99.90
17529;DHT22;8882;53.192;8.184;2023-02-15T15:22:19;10.20;99.90
17529;DHT22;8882;53.192;8.184;2023-02-15T15:38:27;10.00;99.90
17529;DHT22;8882;53.192;8.184;2023-02-15T15:41:06;10.00;99.90
17529;DHT22;8882;53.192;8.184;2023-02-15T15:46:53;9.90;99.90
17529;DHT22;8882;53.192;8.184;2023-02-15T15:49:26;9.90;99.90
17529;DHT22;8882;53.192;8.184;2023-02-15T15:51:54;9.80;99.90
17529;DHT22;8882;53.192;8.184;2023-02-15T15:54:24;9.80;99.90
17529;DHT22;8882;53.192;8.184;2023-02-15T15:56:57;9.70;99.90
17529;DHT22;8882;53.192;8.184;2023-02-15T15:59:26;9.70;99.90
17529;DHT22;8882;53.192;8.184;2023-02-15T16:01:52;9.60;99.90
17529;DHT22;8882;53.192;8.184;2023-02-15T16:04:30;9.60;99.90
17529;DHT22;8882;53.192;8.184;2023-02-15T16:06:57;9.50;99.90
17529;DHT22;8882;53.192;8.184;2023-02-15T16:09:25;9.50;99.90
17529;DHT22;8882;53.192;8.184;2023-02-15T16:11:53;9.40;99.90
17529;DHT22;8882;53.192;8.184;2023-02-15T16:14:40;9.40;99.90
17529;DHT22;8882;53.192;8.184;2023-02-15T16:17:16;9.30;99.90
17529;DHT22;8882;53.192;8.184;2023-02-15T16:19:43;9.30;99.90
17529;DHT22;8882;53.192;8.184;2023-02-15T16:22:16;9.30;99.90
17529;DHT22;8882;53.192;8.184;2023-02-15T16:29:54;9.40;99.90
17529;DHT22;8882;53.192;8.184;2023-02-15T16:32:22;9.40;99.90
17529;DHT22;8882;53.192;8.184;2023-02-15T16:35:01;9.40;99.90
17529;DHT22;8882;53.192;8.184;2023-02-15T16:37:32;9.40;99.90
17529;DHT22;8882;53.192;8.184;2023-02-15T16:39:59;9.80;99.90
17529;DHT22;8882;53.192;8.184;2023-02-15T16:42:24;9.90;99.90
17529;DHT22;8882;53.192;8.184;2023-02-15T16:45:05;9.80;99.90
17529;DHT22;8882;53.192;8.184;2023-02-15T16:47:37;10.30;99.90
17529;DHT22;8882;53.192;8.184;2023-02-15T16:50:05;10.20;99.90
17529;DHT22;8882;53.192;8.184;2023-02-15T16:52:31;10.00;99.90
17529;DHT22;8882;53.192;8.184;2023-02-15T16:54:59;10.00;99.90
17529;DHT22;8882;53.192;8.184;2023-02-15T16:57:33;10.60;99.90
17529;DHT22;8882;53.192;8.184;2023-02-15T17:00:04;10.50;99.90
17529;DHT22;8882;53.192;8.184;2023-02-15T17:02:31;10.20;99.90
17529;DHT22;8882;53.192;8.184;2023-02-15T17:07:42;9.60;99.90
17529;DHT22;8882;53.192;8.184;2023-02-15T17:10:35;9.40;99.90
17529;DHT22;8882;53.192;8.184;2023-02-15T17:13:13;9.20;99.90
17529;DHT22;8882;53.192;8.184;2023-02-15T17:15:41;9.10;99.90
17529;DHT22;8882;53.192;8.184;2023-02-15T17:18:19;9.00;99.90
17529;DHT22;8882;53.192;8.184;2023-02-15T17:20:47;8.90;99.90
17529;DHT22;8882;53.192;8.184;2023-02-15T17:25:54;8.90;99.90
17529;DHT22;8882;53.192;8.184;2023-02-15T17:28:22;8.70;99.90
17529;DHT22;8882;53.192;8.184;2023-02-15T17:30:51;8.70;99.90
17529;DHT22;8882;53.192;8.184;2023-02-15T17:33:24;8.60;99.90
17529;DHT22;8882;53.192;8.184;2023-02-15T17:36:13;8.60;99.90
17529;DHT22;8882;53.192;8.184;2023-02-15T17:39:01;8.50;99.90
17529;DHT22;8882;53.192;8.184;2023-02-15T17:41:28;8.50;99.90
17529;DHT22;8882;53.192;8.184;2023-02-15T17:43:54;8.50;99.90
17529;DHT22;8882;53.192;8.184;2023-02-15T17:46:20;8.50;99.90
17529;DHT22;8882;53.192;8.184;2023-02-15T17:48:51;8.40;99.90
17529;DHT22;8882;53.192;8.184;2023-02-15T17:51:18;8.40;99.90
17529;DHT22;8882;53.192;8.184;2023-02-15T17:53:45;8.30;99.90
17529;DHT22;8882;53.192;8.184;2023-02-15T17:56:29;8.30;99.90
17529;DHT22;8882;53.192;8.184;2023-02-15T17:58:55;8.30;99.90
17529;DHT22;8882;53.192;8.184;2023-02-15T18:01:21;8.30;99.90
17529;DHT22;8882;53.192;8.184;2023-02-15T18:04:08;8.30;99.90
17529;DHT22;8882;53.192;8.184;2023-02-15T18:06:54;8.10;99.90
17529;DHT22;8882;53.192;8.184;2023-02-15T18:09:38;8.10;99.90
17529;DHT22;8882;53.192;8.184;2023-02-15T18:12:24;8.10;99.90
17529;DHT22;8882;53.192;8.184;2023-02-15T18:14:51;8.10;99.90
17529;DHT22;8882;53.192;8.184;2023-02-15T18:17:18;8.10;99.90
17529;DHT22;8882;53.192;8.184;2023-02-15T18:19:45;8.00;99.90
17529;DHT22;8882;53.192;8.184;2023-02-15T18:22:12;7.90;99.90
17529;DHT22;8882;53.192;8.184;2023-02-15T18:24:38;7.90;99.90
17529;DHT22;8882;53.192;8.184;2023-02-15T18:27:04;7.80;99.90
17529;DHT22;8882;53.192;8.184;2023-02-15T18:29:30;7.80;99.90
17529;DHT22;8882;53.192;8.184;2023-02-15T18:31:57;7.80;99.90
17529;DHT22;8882;53.192;8.184;2023-02-15T18:34:36;7.70;99.90
17529;DHT22;8882;53.192;8.184;2023-02-15T18:37:04;7.70;99.90
17529;DHT22;8882;53.192;8.184;2023-02-15T18:39:37;7.70;99.90
17529;DHT22;8882;53.192;8.184;2023-02-15T18:42:04;7.70;99.90
17529;DHT22;8882;53.192;8.184;2023-02-15T18:44:30;7.70;99.90
17529;DHT22;8882;53.192;8.184;2023-02-15T18:46:55;7.70;99.90
17529;DHT22;8882;53.192;8.184;2023-02-15T18:49:21;7.80;99.90
17529;DHT22;8882;53.192;8.184;2023-02-15T18:51:47;7.70;99.90
17529;DHT22;8882;53.192;8.184;2023-02-15T18:54:20;7.70;99.90
17529;DHT22;8882;53.192;8.184;2023-02-15T18:56:52;7.70;99.90
17529;DHT22;8882;53.192;8.184;2023-02-15T18:59:17;7.60;99.90
17529;DHT22;8882;53.192;8.184;2023-02-15T19:01:43;7.60;99.90
17529;DHT22;8882;53.192;8.184;2023-02-15T19:04:09;7.60;99.90
17529;DHT22;8882;53.192;8.184;2023-02-15T19:06:34;7.60;99.90
17529;DHT22;8882;53.192;8.184;2023-02-15T19:09:01;7.50;99.90
17529;DHT22;8882;53.192;8.184;2023-02-15T19:11:27;7.50;99.90
17529;DHT22;8882;53.192;8.184;2023-02-15T19:13:53;7.50;99.90
17529;DHT22;8882;53.192;8.184;2023-02-15T19:16:33;7.50;99.90
17529;DHT22;8882;53.192;8.184;2023-02-15T19:19:00;7.50;99.90
17529;DHT22;8882;53.192;8.184;2023-02-15T19:21:27;7.50;99.90
17529;DHT22;8882;53.192;8.184;2023-02-15T19:23:58;7.50;99.90
17529;DHT22;8882;53.192;8.184;2023-02-15T19:26:27;7.40;99.90
17529;DHT22;8882;53.192;8.184;2023-02-15T19:28:58;7.40;99.90
17529;DHT22;8882;53.192;8.184;2023-02-15T19:31:24;7.40;99.90
17529;DHT22;8882;53.192;8.184;2023-02-15T19:33:50;7.30;99.90
17529;DHT22;8882;53.192;8.184;2023-02-15T19:36:17;7.20;99.90
17529;DHT22;8882;53.192;8.184;2023-02-15T19:38:46;7.20;99.90
17529;DHT22;8882;53.192;8.184;2023-02-15T19:41:24;7.10;99.90
17529;DHT22;8882;53.192;8.184;2023-02-15T19:43:52;7.10;99.90
17529;DHT22;8882;53.192;8.184;2023-02-15T19:46:21;7.10;99.90
17529;DHT22;8882;53.192;8.184;2023-02-15T19:48:48;7.10;99.90
17529;DHT22;8882;53.192;8.184;2023-02-15T19:51:14;7.10;99.90
17529;DHT22;8882;53.192;8.184;2023-02-15T19:53:40;7.10;99.90
17529;DHT22;8882;53.192;8.184;2023-02-15T19:56:16;7.00;99.90
17529;DHT22;8882;53.192;8.184;2023-02-15T19:58:42;7.00;99.90
17529;DHT22;8882;53.192;8.184;2023-02-15T20:01:07;7.00;99.90
17529;DHT22;8882;53.192;8.184;2023-02-15T20:03:33;6.90;99.90
17529;DHT22;8882;53.192;8.184;2023-02-15T20:05:59;6.90;99.90
17529;DHT22;8882;53.192;8.184;2023-02-15T20:08:25;6.80;99.90
17529;DHT22;8882;53.192;8.184;2023-02-15T20:10:51;6.80;99.90
17529;DHT22;8882;53.192;8.184;2023-02-15T20:13:18;6.70;99.90
17529;DHT22;8882;53.192;8.184;2023-02-15T20:15:45;6.70;99.90
17529;DHT22;8882;53.192;8.184;2023-02-15T20:18:11;6.60;99.90
17529;DHT22;8882;53.192;8.184;2023-02-15T20:20:46;6.60;99.90
17529;DHT22;8882;53.192;8.184;2023-02-15T20:23:27;6.60;99.90
17529;DHT22;8882;53.192;8.184;2023-02-15T20:25:54;6.60;99.90
17529;DHT22;8882;53.192;8.184;2023-02-15T20:28:27;6.60;99.90
17529;DHT22;8882;53.192;8.184;2023-02-15T20:30:53;6.60;99.90
17529;DHT22;8882;53.192;8.184;2023-02-15T20:33:20;6.60;99.90
17529;DHT22;8882;53.192;8.184;2023-02-15T20:35:46;6.60;99.90
17529;DHT22;8882;53.192;8.184;2023-02-15T20:38:19;6.50;99.90
17529;DHT22;8882;53.192;8.184;2023-02-15T20:40:46;6.50;99.90
17529;DHT22;8882;53.192;8.184;2023-02-15T20:43:32;6.50;99.90
17529;DHT22;8882;53.192;8.184;2023-02-15T20:45:57;6.50;99.90
17529;DHT22;8882;53.192;8.184;2023-02-15T20:48:23;6.50;99.90
17529;DHT22;8882;53.192;8.184;2023-02-15T20:50:48;6.60;99.90
17529;DHT22;8882;53.192;8.184;2023-02-15T20:53:14;6.60;99.90
17529;DHT22;8882;53.192;8.184;2023-02-15T20:55:40;6.60;99.90
17529;DHT22;8882;53.192;8.184;2023-02-15T21:00:42;6.50;99.90
17529;DHT22;8882;53.192;8.184;2023-02-15T21:03:11;6.60;99.90
17529;DHT22;8882;53.192;8.184;2023-02-15T21:05:38;6.60;99.90
17529;DHT22;8882;53.192;8.184;2023-02-15T21:08:14;6.60;99.90
17529;DHT22;8882;53.192;8.184;2023-02-15T21:10:41;6.50;99.90
17529;DHT22;8882;53.192;8.184;2023-02-15T21:13:30;6.50;99.90
17529;DHT22;8882;53.192;8.184;2023-02-15T21:15:57;6.50;99.90
17529;DHT22;8882;53.192;8.184;2023-02-15T21:20:52;6.50;99.90
17529;DHT22;8882;53.192;8.184;2023-02-15T21:23:24;6.40;99.90
17529;DHT22;8882;53.192;8.184;2023-02-15T21:25:51;6.40;99.90
17529;DHT22;8882;53.192;8.184;2023-02-15T21:28:21;6.40;99.90
17529;DHT22;8882;53.192;8.184;2023-02-15T21:30:47;6.40;99.90
17529;DHT22;8882;53.192;8.184;2023-02-15T21:33:14;6.40;99.90
17529;DHT22;8882;53.192;8.184;2023-02-15T21:35:41;6.40;99.90
17529;DHT22;8882;53.192;8.184;2023-02-15T21:38:13;6.40;99.90
17529;DHT22;8882;53.192;8.184;2023-02-15T21:40:40;6.40;99.90
17529;DHT22;8882;53.192;8.184;2023-02-15T21:43:13;6.40;99.90
17529;DHT22;8882;53.192;8.184;2023-02-15T21:46:00;6.50;99.90
17529;DHT22;8882;53.192;8.184;2023-02-15T21:48:45;6.40;99.90
17529;DHT22;8882;53.192;8.184;2023-02-15T21:51:10;6.40;99.90
17529;DHT22;8882;53.192;8.184;2023-02-15T21:53:54;6.40;99.90
17529;DHT22;8882;53.192;8.184;2023-02-15T21:56:21;6.40;99.90
17529;DHT22;8882;53.192;8.184;2023-02-15T21:58:47;6.30;99.90
